createdAt,value
2018-06-27T00:00:20.773Z,0.00
2018-06-27T00:01:20.817Z,0.00
2018-06-27T00:02:20.806Z,0.00
2018-06-27T00:03:20.833Z,0.00
2018-06-27T00:04:20.847Z,0.00
2018-06-27T00:05:20.870Z,0.00
2018-06-27T00:06:20.892Z,0.00
2018-06-27T00:07:20.903Z,0.00
2018-06-27T00:08:20.920Z,0.00
2018-06-27T00:09:20.941Z,0.00
2018-06-27T00:10:20.969Z,0.00
2018-06-27T00:11:20.975Z,0.00
2018-06-27T00:12:21.005Z,0.00
2018-06-27T00:13:21.016Z,0.00
2018-06-27T00:14:21.045Z,0.00
2018-06-27T00:15:21.057Z,0.00
2018-06-27T00:16:21.070Z,0.00
2018-06-27T00:17:21.086Z,0.00
2018-06-27T00:18:21.106Z,0.00
2018-06-27T00:19:21.160Z,0.00
2018-06-27T00:20:21.145Z,0.00
2018-06-27T00:21:21.192Z,0.00
2018-06-27T00:22:21.184Z,0.00
2018-06-27T00:23:21.210Z,0.00
2018-06-27T00:24:21.219Z,0.00
2018-06-27T00:25:21.241Z,0.00
2018-06-27T00:26:21.271Z,0.00
2018-06-27T00:27:21.284Z,0.00
2018-06-27T00:28:21.297Z,0.00
2018-06-27T00:29:21.314Z,0.00
2018-06-27T00:30:21.335Z,0.00
2018-06-27T00:31:21.369Z,0.00
2018-06-27T00:32:21.379Z,0.00
2018-06-27T00:33:21.400Z,0.00
2018-06-27T00:34:21.399Z,0.00
2018-06-27T00:35:21.415Z,0.00
2018-06-27T00:36:21.437Z,0.00
2018-06-27T00:37:21.482Z,0.00
2018-06-27T00:38:21.485Z,0.00
2018-06-27T00:39:21.499Z,0.00
2018-06-27T00:40:21.524Z,0.00
2018-06-27T00:41:21.543Z,0.00
2018-06-27T00:42:21.554Z,0.00
2018-06-27T00:43:21.580Z,0.00
2018-06-27T00:44:21.588Z,0.00
2018-06-27T00:45:21.604Z,0.00
2018-06-27T00:46:21.632Z,0.00
2018-06-27T00:47:21.646Z,0.00
2018-06-27T00:48:21.670Z,0.00
2018-06-27T00:49:21.678Z,0.00
2018-06-27T00:50:21.721Z,0.00
2018-06-27T00:51:21.727Z,0.00
2018-06-27T00:52:21.747Z,0.00
2018-06-27T00:53:21.751Z,0.00
2018-06-27T00:54:21.776Z,0.00
2018-06-27T00:55:21.802Z,0.00
2018-06-27T00:56:21.823Z,0.00
2018-06-27T00:57:21.847Z,0.00
2018-06-27T00:58:21.860Z,0.00
2018-06-27T00:59:21.880Z,0.00
2018-06-27T01:00:21.897Z,0.00
2018-06-27T01:01:21.901Z,0.00
2018-06-27T01:02:21.986Z,0.00
2018-06-27T01:03:21.935Z,0.00
2018-06-27T01:04:21.954Z,0.00
2018-06-27T01:05:21.973Z,0.00
2018-06-27T01:06:21.987Z,0.00
2018-06-27T01:07:22.003Z,0.00
2018-06-27T01:08:22.033Z,0.00
2018-06-27T01:09:22.066Z,0.00
2018-06-27T01:10:22.063Z,0.00
2018-06-27T01:11:22.074Z,0.00
2018-06-27T01:12:22.098Z,0.00
2018-06-27T01:13:22.127Z,0.00
2018-06-27T01:14:22.135Z,0.00
2018-06-27T01:15:22.175Z,0.00
2018-06-27T01:16:22.173Z,0.00
2018-06-27T01:17:22.185Z,0.00
2018-06-27T01:18:22.211Z,0.00
2018-06-27T01:19:22.242Z,0.00
2018-06-27T01:20:22.262Z,0.00
2018-06-27T01:21:22.302Z,0.00
2018-06-27T01:22:22.279Z,0.00
2018-06-27T01:23:22.300Z,0.00
2018-06-27T01:24:22.315Z,0.00
2018-06-27T01:25:22.334Z,0.00
2018-06-27T01:26:22.367Z,0.00
2018-06-27T01:27:22.368Z,0.00
2018-06-27T01:28:22.393Z,0.00
2018-06-27T01:29:22.405Z,0.00
2018-06-27T01:30:22.430Z,0.00
2018-06-27T01:31:22.446Z,0.00
2018-06-27T01:32:22.468Z,0.00
2018-06-27T01:33:22.483Z,0.00
2018-06-27T01:34:22.495Z,0.00
2018-06-27T01:35:22.531Z,0.00
2018-06-27T01:36:22.539Z,0.00
2018-06-27T01:37:22.551Z,0.00
2018-06-27T01:38:22.585Z,0.00
2018-06-27T01:39:22.596Z,0.00
2018-06-27T01:40:22.625Z,0.00
2018-06-27T01:41:22.631Z,0.00
2018-06-27T01:42:22.642Z,0.00
2018-06-27T01:43:22.672Z,0.00
2018-06-27T01:44:22.681Z,0.00
2018-06-27T01:45:22.706Z,0.00
2018-06-27T01:46:22.716Z,0.00
2018-06-27T01:47:22.738Z,0.00
2018-06-27T01:48:22.756Z,0.00
2018-06-27T01:49:22.783Z,0.00
2018-06-27T01:50:22.804Z,0.00
2018-06-27T01:51:22.819Z,0.00
2018-06-27T01:52:22.828Z,0.00
2018-06-27T01:53:22.844Z,0.00
2018-06-27T01:54:22.884Z,0.00
2018-06-27T01:55:22.883Z,0.00
2018-06-27T01:56:22.901Z,0.00
2018-06-27T01:57:22.917Z,0.00
2018-06-27T01:58:22.941Z,0.00
2018-06-27T01:59:22.952Z,0.00
2018-06-27T02:00:22.975Z,0.00
2018-06-27T02:01:22.992Z,0.00
2018-06-27T02:02:23.008Z,0.00
2018-06-27T02:03:23.026Z,0.00
2018-06-27T02:04:23.052Z,0.00
2018-06-27T02:05:23.079Z,0.00
2018-06-27T02:06:23.086Z,0.00
2018-06-27T02:07:23.107Z,0.00
2018-06-27T02:08:23.134Z,0.00
2018-06-27T02:09:23.135Z,0.00
2018-06-27T02:10:23.151Z,0.00
2018-06-27T02:11:23.181Z,0.00
2018-06-27T02:12:23.189Z,0.00
2018-06-27T02:13:23.226Z,0.00
2018-06-27T02:14:23.253Z,0.00
2018-06-27T02:15:23.255Z,0.00
2018-06-27T02:16:23.276Z,0.00
2018-06-27T02:17:23.274Z,0.00
2018-06-27T02:18:23.310Z,0.00
2018-06-27T02:19:23.320Z,0.00
2018-06-27T02:20:23.330Z,0.00
2018-06-27T02:21:23.350Z,0.00
2018-06-27T02:22:23.396Z,0.00
2018-06-27T02:23:23.394Z,0.00
2018-06-27T02:24:23.412Z,0.00
2018-06-27T02:25:23.435Z,0.00
2018-06-27T02:26:23.447Z,0.00
2018-06-27T02:27:23.498Z,0.00
2018-06-27T02:28:23.486Z,0.00
2018-06-27T02:29:23.503Z,0.00
2018-06-27T02:30:23.526Z,0.00
2018-06-27T02:31:23.554Z,0.00
2018-06-27T02:32:23.569Z,0.00
2018-06-27T02:33:23.579Z,0.00
2018-06-27T02:34:23.602Z,0.00
2018-06-27T02:35:23.617Z,0.00
2018-06-27T02:36:23.624Z,0.00
2018-06-27T02:37:23.649Z,0.00
2018-06-27T02:38:23.681Z,0.00
2018-06-27T02:39:23.673Z,0.00
2018-06-27T02:40:23.704Z,0.00
2018-06-27T02:41:23.710Z,0.00
2018-06-27T02:42:23.736Z,0.00
2018-06-27T02:43:23.763Z,0.00
2018-06-27T02:44:23.777Z,0.00
2018-06-27T02:45:23.797Z,0.00
2018-06-27T02:46:23.804Z,0.00
2018-06-27T02:47:23.828Z,0.00
2018-06-27T02:48:23.838Z,0.00
2018-06-27T02:49:23.857Z,0.00
2018-06-27T02:50:23.880Z,0.00
2018-06-27T02:51:23.904Z,5.63
2018-06-27T02:52:23.927Z,5.63
2018-06-27T02:53:23.931Z,5.63
2018-06-27T02:54:23.945Z,5.63
2018-06-27T02:55:23.969Z,5.63
2018-06-27T02:56:23.982Z,5.63
2018-06-27T02:57:24.011Z,5.63
2018-06-27T02:58:24.031Z,5.63
2018-06-27T02:59:24.037Z,11.25
2018-06-27T03:00:24.060Z,11.25
2018-06-27T03:01:24.085Z,11.25
2018-06-27T03:02:24.163Z,11.25
2018-06-27T03:03:24.131Z,11.25
2018-06-27T03:04:24.136Z,11.25
2018-06-27T03:05:24.151Z,16.88
2018-06-27T03:06:24.164Z,16.88
2018-06-27T03:07:24.183Z,16.88
2018-06-27T03:08:24.202Z,16.88
2018-06-27T03:09:24.220Z,16.88
2018-06-27T03:10:24.239Z,22.50
2018-06-27T03:11:24.258Z,22.50
2018-06-27T03:12:24.274Z,22.50
2018-06-27T03:13:24.326Z,22.50
2018-06-27T03:14:24.311Z,28.13
2018-06-27T03:15:24.331Z,28.13
2018-06-27T03:16:24.361Z,28.13
2018-06-27T03:17:24.359Z,33.75
2018-06-27T03:18:24.382Z,33.75
2018-06-27T03:19:24.404Z,33.75
2018-06-27T03:20:24.419Z,33.75
2018-06-27T03:21:24.438Z,39.38
2018-06-27T03:22:24.457Z,39.38
2018-06-27T03:23:24.489Z,39.38
2018-06-27T03:24:24.488Z,39.38
2018-06-27T03:25:24.505Z,45.00
2018-06-27T03:26:24.523Z,45.00
2018-06-27T03:27:24.540Z,45.00
2018-06-27T03:28:24.581Z,45.00
2018-06-27T03:29:24.590Z,45.00
2018-06-27T03:30:24.601Z,45.00
2018-06-27T03:31:24.623Z,50.63
2018-06-27T03:32:24.637Z,50.63
2018-06-27T03:33:24.650Z,50.63
2018-06-27T03:34:24.672Z,56.25
2018-06-27T03:35:24.685Z,50.63
2018-06-27T03:36:24.706Z,50.63
2018-06-27T03:37:24.727Z,50.63
2018-06-27T03:38:24.745Z,45.00
2018-06-27T03:39:24.762Z,45.00
2018-06-27T03:40:24.781Z,50.63
2018-06-27T03:41:24.807Z,50.63
2018-06-27T03:42:24.816Z,50.63
2018-06-27T03:43:24.838Z,45.00
2018-06-27T03:44:24.857Z,45.00
2018-06-27T03:45:24.869Z,45.00
2018-06-27T03:46:24.917Z,39.38
2018-06-27T03:47:24.901Z,45.00
2018-06-27T03:48:24.935Z,45.00
2018-06-27T03:49:24.941Z,45.00
2018-06-27T03:50:24.961Z,45.00
2018-06-27T03:51:24.980Z,50.63
2018-06-27T03:52:25.004Z,45.00
2018-06-27T03:53:25.014Z,45.00
2018-06-27T03:54:25.054Z,45.00
2018-06-27T03:55:25.067Z,50.63
2018-06-27T03:56:25.066Z,50.63
2018-06-27T03:57:25.091Z,50.63
2018-06-27T03:58:25.107Z,56.25
2018-06-27T03:59:25.169Z,50.63
2018-06-27T04:00:25.158Z,45.00
2018-06-27T04:01:25.171Z,50.63
2018-06-27T04:02:25.205Z,50.63
2018-06-27T04:03:25.199Z,56.25
2018-06-27T04:04:25.233Z,56.25
2018-06-27T04:05:25.234Z,50.63
2018-06-27T04:06:25.258Z,50.63
2018-06-27T04:07:25.281Z,50.63
2018-06-27T04:08:25.311Z,50.63
2018-06-27T04:09:25.324Z,56.25
2018-06-27T04:10:25.330Z,50.63
2018-06-27T04:11:25.350Z,50.63
2018-06-27T04:12:25.366Z,56.25
2018-06-27T04:13:25.454Z,56.25
2018-06-27T04:14:25.417Z,56.25
2018-06-27T04:15:25.453Z,56.25
2018-06-27T04:16:25.446Z,61.88
2018-06-27T04:17:25.502Z,56.25
2018-06-27T04:18:25.486Z,61.88
2018-06-27T04:19:25.506Z,61.88
2018-06-27T04:20:25.529Z,61.88
2018-06-27T04:21:25.563Z,67.50
2018-06-27T04:22:25.561Z,67.50
2018-06-27T04:23:25.569Z,67.50
2018-06-27T04:24:25.593Z,67.50
2018-06-27T04:25:25.619Z,73.13
2018-06-27T04:26:25.635Z,73.13
2018-06-27T04:27:25.651Z,73.13
2018-06-27T04:28:25.683Z,78.75
2018-06-27T04:29:25.796Z,78.75
2018-06-27T04:30:25.712Z,78.75
2018-06-27T04:31:25.741Z,84.38
2018-06-27T04:32:25.745Z,78.75
2018-06-27T04:33:25.758Z,84.38
2018-06-27T04:34:25.809Z,84.38
2018-06-27T04:35:25.799Z,84.38
2018-06-27T04:36:25.828Z,84.38
2018-06-27T04:37:25.841Z,90.00
2018-06-27T04:38:25.854Z,84.38
2018-06-27T04:39:25.884Z,84.38
2018-06-27T04:40:25.895Z,84.38
2018-06-27T04:41:25.927Z,90.00
2018-06-27T04:42:25.932Z,95.63
2018-06-27T04:43:25.956Z,90.00
2018-06-27T04:44:25.972Z,95.63
2018-06-27T04:45:26.000Z,106.88
2018-06-27T04:46:26.009Z,101.25
2018-06-27T04:47:26.043Z,112.50
2018-06-27T04:48:26.050Z,118.13
2018-06-27T04:49:26.091Z,123.75
2018-06-27T04:50:26.080Z,129.38
2018-06-27T04:51:26.109Z,129.38
2018-06-27T04:52:26.136Z,129.38
2018-06-27T04:53:26.148Z,129.38
2018-06-27T04:54:26.163Z,135.00
2018-06-27T04:55:26.189Z,140.63
2018-06-27T04:56:26.199Z,146.25
2018-06-27T04:57:26.217Z,146.25
2018-06-27T04:58:26.235Z,151.88
2018-06-27T04:59:26.271Z,163.13
2018-06-27T05:00:26.289Z,163.13
2018-06-27T05:01:26.314Z,168.75
2018-06-27T05:02:26.329Z,174.38
2018-06-27T05:03:26.346Z,196.88
2018-06-27T05:04:26.356Z,191.25
2018-06-27T05:05:26.369Z,196.88
2018-06-27T05:06:26.416Z,208.13
2018-06-27T05:07:26.430Z,185.63
2018-06-27T05:08:26.437Z,191.25
2018-06-27T05:09:26.495Z,196.88
2018-06-27T05:10:26.475Z,208.13
2018-06-27T05:11:26.493Z,230.63
2018-06-27T05:12:26.513Z,230.63
2018-06-27T05:13:26.536Z,241.88
2018-06-27T05:14:26.562Z,230.63
2018-06-27T05:15:26.573Z,225.00
2018-06-27T05:16:26.611Z,247.50
2018-06-27T05:17:26.613Z,247.50
2018-06-27T05:18:26.641Z,225.00
2018-06-27T05:19:26.656Z,236.25
2018-06-27T05:20:26.679Z,247.50
2018-06-27T05:21:26.707Z,281.25
2018-06-27T05:22:26.708Z,264.38
2018-06-27T05:23:26.728Z,286.88
2018-06-27T05:24:26.759Z,298.13
2018-06-27T05:25:26.781Z,253.13
2018-06-27T05:26:26.792Z,264.38
2018-06-27T05:27:26.871Z,286.88
2018-06-27T05:28:26.840Z,292.50
2018-06-27T05:29:26.939Z,270.00
2018-06-27T05:30:26.887Z,264.38
2018-06-27T05:31:26.907Z,247.50
2018-06-27T05:32:26.953Z,264.38
2018-06-27T05:33:26.928Z,286.88
2018-06-27T05:34:26.950Z,281.25
2018-06-27T05:35:26.971Z,258.75
2018-06-27T05:36:27.001Z,270.00
2018-06-27T05:37:27.029Z,258.75
2018-06-27T05:38:27.033Z,258.75
2018-06-27T05:39:27.068Z,264.38
2018-06-27T05:40:27.082Z,275.63
2018-06-27T05:41:27.095Z,264.38
2018-06-27T05:42:27.113Z,247.50
2018-06-27T05:43:27.136Z,241.88
2018-06-27T05:44:27.169Z,241.88
2018-06-27T05:45:27.174Z,241.88
2018-06-27T05:46:27.201Z,258.75
2018-06-27T05:47:27.223Z,264.38
2018-06-27T05:48:27.259Z,253.13
2018-06-27T05:49:27.310Z,247.50
2018-06-27T05:50:27.286Z,281.25
2018-06-27T05:51:27.299Z,303.75
2018-06-27T05:52:27.342Z,348.75
2018-06-27T05:53:27.346Z,405.00
2018-06-27T05:54:27.363Z,556.88
2018-06-27T05:55:27.387Z,787.50
2018-06-27T05:56:27.402Z,596.25
2018-06-27T05:57:27.433Z,500.63
2018-06-27T05:58:27.464Z,466.88
2018-06-27T05:59:27.473Z,450.00
2018-06-27T06:00:27.516Z,416.25
2018-06-27T06:01:27.518Z,354.38
2018-06-27T06:02:27.530Z,354.38
2018-06-27T06:03:27.560Z,371.25
2018-06-27T06:04:27.681Z,343.13
2018-06-27T06:05:27.593Z,360.00
2018-06-27T06:06:27.613Z,376.88
2018-06-27T06:07:27.646Z,360.00
2018-06-27T06:08:27.665Z,360.00
2018-06-27T06:09:27.678Z,393.75
2018-06-27T06:10:27.704Z,405.00
2018-06-27T06:11:27.757Z,376.88
2018-06-27T06:12:27.750Z,399.38
2018-06-27T06:13:27.792Z,388.13
2018-06-27T06:14:27.797Z,421.88
2018-06-27T06:15:27.812Z,399.38
2018-06-27T06:16:27.824Z,360.00
2018-06-27T06:17:27.851Z,320.63
2018-06-27T06:18:27.871Z,275.63
2018-06-27T06:19:27.891Z,320.63
2018-06-27T06:20:27.921Z,331.88
2018-06-27T06:21:28.007Z,337.50
2018-06-27T06:22:27.953Z,320.63
2018-06-27T06:23:27.971Z,343.13
2018-06-27T06:24:28.009Z,393.75
2018-06-27T06:25:28.098Z,472.50
2018-06-27T06:26:28.037Z,450.00
2018-06-27T06:27:28.056Z,450.00
2018-06-27T06:28:28.079Z,506.25
2018-06-27T06:29:28.118Z,601.88
2018-06-27T06:30:28.127Z,613.13
2018-06-27T06:31:28.139Z,556.88
2018-06-27T06:32:28.181Z,613.13
2018-06-27T06:33:28.182Z,652.50
2018-06-27T06:34:28.202Z,939.38
2018-06-27T06:35:28.249Z,855.00
2018-06-27T06:36:28.254Z,731.25
2018-06-27T06:37:28.274Z,765.00
2018-06-27T06:38:28.301Z,922.50
2018-06-27T06:39:28.329Z,1001.25
2018-06-27T06:40:28.325Z,1473.75
2018-06-27T06:41:28.373Z,1963.13
2018-06-27T06:42:28.387Z,2362.50
2018-06-27T06:43:28.427Z,1468.13
2018-06-27T06:44:28.448Z,2002.50
2018-06-27T06:45:28.451Z,1861.88
2018-06-27T06:46:28.462Z,2250.00
2018-06-27T06:47:28.488Z,787.50
2018-06-27T06:48:28.505Z,798.75
2018-06-27T06:49:28.531Z,793.13
2018-06-27T06:50:28.566Z,928.13
2018-06-27T06:51:28.579Z,1074.38
2018-06-27T06:52:28.600Z,1293.75
2018-06-27T06:53:28.644Z,1496.25
2018-06-27T06:54:28.648Z,1940.63
2018-06-27T06:55:28.678Z,1383.75
2018-06-27T06:56:28.694Z,1625.63
2018-06-27T06:57:28.726Z,2581.88
2018-06-27T06:58:28.750Z,2812.50
2018-06-27T06:59:28.768Z,2480.63
2018-06-27T07:00:28.802Z,2598.75
2018-06-27T07:01:28.833Z,2660.63
2018-06-27T07:02:28.848Z,2683.13
2018-06-27T07:03:28.878Z,2598.75
2018-06-27T07:04:28.895Z,2655.00
2018-06-27T07:05:28.916Z,2081.25
2018-06-27T07:06:28.939Z,1597.50
2018-06-27T07:07:28.969Z,2711.25
2018-06-27T07:08:29.015Z,2868.75
2018-06-27T07:09:29.018Z,2953.13
2018-06-27T07:10:29.087Z,2655.00
2018-06-27T07:11:29.074Z,2964.38
2018-06-27T07:12:29.097Z,3127.50
2018-06-27T07:13:29.126Z,3150.00
2018-06-27T07:14:29.156Z,3150.00
2018-06-27T07:15:29.203Z,2981.25
2018-06-27T07:16:29.244Z,2835.00
2018-06-27T07:17:29.264Z,2992.50
2018-06-27T07:18:29.270Z,2953.13
2018-06-27T07:19:29.292Z,2829.38
2018-06-27T07:20:29.325Z,2885.63
2018-06-27T07:21:29.353Z,2880.00
2018-06-27T07:22:29.375Z,2846.25
2018-06-27T07:23:29.412Z,2908.13
2018-06-27T07:24:29.441Z,3082.50
2018-06-27T07:25:29.467Z,3093.75
2018-06-27T07:26:29.505Z,3166.88
2018-06-27T07:27:29.534Z,3161.25
2018-06-27T07:28:29.618Z,3043.13
2018-06-27T07:29:29.575Z,2947.50
2018-06-27T07:30:29.608Z,2885.63
2018-06-27T07:31:29.636Z,2851.88
2018-06-27T07:32:29.686Z,2851.88
2018-06-27T07:33:29.691Z,2930.63
2018-06-27T07:34:29.717Z,2975.63
2018-06-27T07:35:29.754Z,3088.13
2018-06-27T07:36:29.792Z,3088.13
2018-06-27T07:37:29.812Z,2880.00
2018-06-27T07:38:29.851Z,2930.63
2018-06-27T07:39:29.875Z,2941.88
2018-06-27T07:40:29.898Z,2970.00
2018-06-27T07:41:29.938Z,3065.63
2018-06-27T07:42:29.969Z,3031.88
2018-06-27T07:43:29.990Z,2885.63
2018-06-27T07:44:30.051Z,3048.75
2018-06-27T07:45:30.070Z,3161.25
2018-06-27T07:46:30.089Z,3088.13
2018-06-27T07:47:30.116Z,3015.00
2018-06-27T07:48:30.151Z,3172.50
2018-06-27T07:49:30.193Z,3307.50
2018-06-27T07:50:30.219Z,3065.63
2018-06-27T07:51:30.245Z,3009.38
2018-06-27T07:52:30.270Z,2998.13
2018-06-27T07:53:30.302Z,2683.13
2018-06-27T07:54:30.329Z,2790.00
2018-06-27T07:55:30.358Z,3088.13
2018-06-27T07:56:30.398Z,2970.00
2018-06-27T07:57:30.417Z,2806.88
2018-06-27T07:58:30.453Z,2784.38
2018-06-27T07:59:30.484Z,2711.25
2018-06-27T08:00:30.514Z,2401.88
2018-06-27T08:01:30.551Z,2441.25
2018-06-27T08:02:30.574Z,2649.38
2018-06-27T08:03:30.610Z,2722.50
2018-06-27T08:04:30.633Z,2677.50
2018-06-27T08:05:30.667Z,2688.75
2018-06-27T08:06:30.692Z,2761.88
2018-06-27T08:07:30.722Z,2733.75
2018-06-27T08:08:30.753Z,2840.63
2018-06-27T08:09:30.779Z,3037.50
2018-06-27T08:10:30.839Z,2863.13
2018-06-27T08:11:30.850Z,2508.75
2018-06-27T08:12:30.939Z,2418.75
2018-06-27T08:13:30.896Z,2418.75
2018-06-27T08:14:30.933Z,2227.50
2018-06-27T08:15:30.960Z,2171.25
2018-06-27T08:16:30.991Z,2356.88
2018-06-27T08:17:31.015Z,2385.00
2018-06-27T08:18:31.046Z,2520.00
2018-06-27T08:19:31.076Z,2604.38
2018-06-27T08:20:31.107Z,2548.13
2018-06-27T08:21:31.143Z,2475.00
2018-06-27T08:22:31.178Z,2632.50
2018-06-27T08:23:31.192Z,2700.00
2018-06-27T08:24:31.218Z,2379.38
2018-06-27T08:25:31.256Z,2216.25
2018-06-27T08:26:31.277Z,2278.13
2018-06-27T08:27:31.326Z,2514.38
2018-06-27T08:28:31.342Z,2626.88
2018-06-27T08:29:31.357Z,2525.63
2018-06-27T08:30:31.388Z,2385.00
2018-06-27T08:31:31.417Z,2581.88
2018-06-27T08:32:31.451Z,2711.25
2018-06-27T08:33:31.479Z,2475.00
2018-06-27T08:34:31.500Z,2064.38
2018-06-27T08:35:31.522Z,1147.50
2018-06-27T08:36:31.560Z,421.88
2018-06-27T08:37:31.589Z,382.50
2018-06-27T08:38:31.599Z,360.00
2018-06-27T08:39:31.628Z,348.75
2018-06-27T08:40:31.653Z,348.75
2018-06-27T08:41:31.679Z,343.13
2018-06-27T08:42:31.703Z,343.13
2018-06-27T08:43:31.752Z,343.13
2018-06-27T08:44:31.831Z,343.13
2018-06-27T08:45:31.783Z,343.13
2018-06-27T08:46:31.828Z,343.13
2018-06-27T08:47:31.841Z,348.75
2018-06-27T08:48:31.863Z,343.13
2018-06-27T08:49:31.904Z,337.50
2018-06-27T08:50:31.907Z,343.13
2018-06-27T08:51:31.930Z,337.50
2018-06-27T08:52:31.958Z,337.50
2018-06-27T08:53:31.977Z,337.50
2018-06-27T08:54:32.001Z,331.88
2018-06-27T08:55:32.027Z,331.88
2018-06-27T08:56:32.060Z,331.88
2018-06-27T08:57:32.093Z,331.88
2018-06-27T08:58:32.141Z,331.88
2018-06-27T08:59:32.126Z,331.88
2018-06-27T09:00:32.165Z,326.25
2018-06-27T09:01:32.171Z,331.88
2018-06-27T09:02:32.202Z,326.25
2018-06-27T09:03:32.222Z,337.50
2018-06-27T09:04:32.243Z,337.50
2018-06-27T09:05:32.265Z,331.88
2018-06-27T09:06:32.312Z,331.88
2018-06-27T09:07:32.315Z,331.88
2018-06-27T09:08:32.343Z,331.88
2018-06-27T09:09:32.362Z,331.88
2018-06-27T09:10:32.387Z,331.88
2018-06-27T09:11:32.408Z,326.25
2018-06-27T09:12:32.438Z,326.25
2018-06-27T09:13:32.450Z,326.25
2018-06-27T09:14:32.495Z,326.25
2018-06-27T09:15:32.492Z,326.25
2018-06-27T09:16:32.521Z,326.25
2018-06-27T09:17:32.559Z,326.25
2018-06-27T09:18:32.583Z,326.25
2018-06-27T09:19:32.612Z,331.88
2018-06-27T09:20:32.609Z,326.25
2018-06-27T09:21:32.652Z,326.25
2018-06-27T09:22:32.659Z,331.88
2018-06-27T09:23:32.690Z,331.88
2018-06-27T09:24:32.705Z,331.88
2018-06-27T09:25:32.727Z,343.13
2018-06-27T09:26:32.762Z,348.75
2018-06-27T09:27:32.791Z,343.13
2018-06-27T09:28:32.801Z,348.75
2018-06-27T09:29:32.819Z,360.00
2018-06-27T09:30:32.845Z,354.38
2018-06-27T09:31:32.871Z,365.63
2018-06-27T09:32:32.886Z,365.63
2018-06-27T09:33:32.916Z,376.88
2018-06-27T09:34:32.950Z,354.38
2018-06-27T09:35:32.959Z,337.50
2018-06-27T09:36:32.976Z,343.13
2018-06-27T09:37:33.010Z,348.75
2018-06-27T09:38:33.028Z,354.38
2018-06-27T09:39:33.053Z,360.00
2018-06-27T09:40:33.070Z,348.75
2018-06-27T09:41:33.099Z,348.75
2018-06-27T09:42:33.125Z,360.00
2018-06-27T09:43:33.149Z,354.38
2018-06-27T09:44:33.178Z,348.75
2018-06-27T09:45:33.213Z,348.75
2018-06-27T09:46:33.215Z,348.75
2018-06-27T09:47:33.237Z,354.38
2018-06-27T09:48:33.263Z,354.38
2018-06-27T09:49:33.284Z,360.00
2018-06-27T09:50:33.309Z,360.00
2018-06-27T09:51:33.341Z,365.63
2018-06-27T09:52:33.353Z,382.50
2018-06-27T09:53:33.385Z,309.38
2018-06-27T09:54:33.397Z,354.38
2018-06-27T09:55:33.419Z,360.00
2018-06-27T09:56:33.441Z,360.00
2018-06-27T09:57:33.473Z,371.25
2018-06-27T09:58:33.502Z,376.88
2018-06-27T09:59:33.545Z,388.13
2018-06-27T10:00:33.534Z,410.63
2018-06-27T10:01:33.553Z,416.25
2018-06-27T10:02:33.579Z,393.75
2018-06-27T10:03:33.603Z,388.13
2018-06-27T10:04:33.633Z,405.00
2018-06-27T10:05:33.652Z,410.63
2018-06-27T10:06:33.672Z,444.38
2018-06-27T10:07:33.749Z,461.25
2018-06-27T10:08:33.717Z,455.63
2018-06-27T10:09:33.747Z,455.63
2018-06-27T10:10:33.767Z,489.38
2018-06-27T10:11:33.790Z,511.88
2018-06-27T10:12:33.819Z,540.00
2018-06-27T10:13:33.836Z,540.00
2018-06-27T10:14:33.862Z,556.88
2018-06-27T10:15:33.886Z,601.88
2018-06-27T10:16:33.901Z,624.38
2018-06-27T10:17:33.945Z,601.88
2018-06-27T10:18:33.951Z,540.00
2018-06-27T10:19:33.978Z,444.38
2018-06-27T10:20:34.004Z,461.25
2018-06-27T10:21:34.030Z,433.13
2018-06-27T10:22:34.084Z,410.63
2018-06-27T10:23:34.068Z,371.25
2018-06-27T10:24:34.094Z,371.25
2018-06-27T10:25:34.125Z,371.25
2018-06-27T10:26:34.151Z,376.88
2018-06-27T10:27:34.162Z,382.50
2018-06-27T10:28:34.253Z,388.13
2018-06-27T10:29:34.235Z,399.38
2018-06-27T10:30:34.243Z,405.00
2018-06-27T10:31:34.257Z,399.38
2018-06-27T10:32:34.280Z,399.38
2018-06-27T10:33:34.310Z,410.63
2018-06-27T10:34:34.329Z,416.25
2018-06-27T10:35:34.354Z,382.50
2018-06-27T10:36:34.381Z,438.75
2018-06-27T10:37:34.403Z,433.13
2018-06-27T10:38:34.439Z,433.13
2018-06-27T10:39:34.446Z,450.00
2018-06-27T10:40:34.474Z,478.13
2018-06-27T10:41:34.500Z,506.25
2018-06-27T10:42:34.522Z,489.38
2018-06-27T10:43:34.553Z,472.50
2018-06-27T10:44:34.587Z,489.38
2018-06-27T10:45:34.595Z,450.00
2018-06-27T10:46:34.617Z,399.38
2018-06-27T10:47:34.634Z,399.38
2018-06-27T10:48:34.663Z,405.00
2018-06-27T10:49:34.692Z,410.63
2018-06-27T10:50:34.732Z,427.50
2018-06-27T10:51:34.739Z,416.25
2018-06-27T10:52:34.772Z,416.25
2018-06-27T10:53:34.778Z,416.25
2018-06-27T10:54:34.812Z,399.38
2018-06-27T10:55:34.823Z,388.13
2018-06-27T10:56:34.857Z,405.00
2018-06-27T10:57:34.871Z,416.25
2018-06-27T10:58:34.901Z,444.38
2018-06-27T10:59:34.924Z,472.50
2018-06-27T11:00:34.985Z,478.13
2018-06-27T11:01:34.986Z,472.50
2018-06-27T11:02:34.989Z,466.88
2018-06-27T11:03:35.013Z,472.50
2018-06-27T11:04:35.043Z,489.38
2018-06-27T11:05:35.065Z,500.63
2018-06-27T11:06:35.092Z,528.75
2018-06-27T11:07:35.117Z,545.63
2018-06-27T11:08:35.139Z,511.88
2018-06-27T11:09:35.161Z,455.63
2018-06-27T11:10:35.195Z,405.00
2018-06-27T11:11:35.220Z,421.88
2018-06-27T11:12:35.231Z,399.38
2018-06-27T11:13:35.256Z,365.63
2018-06-27T11:14:35.286Z,438.75
2018-06-27T11:15:35.316Z,455.63
2018-06-27T11:16:35.332Z,478.13
2018-06-27T11:17:35.353Z,483.75
2018-06-27T11:18:35.390Z,466.88
2018-06-27T11:19:35.406Z,466.88
2018-06-27T11:20:35.423Z,483.75
2018-06-27T11:21:35.446Z,489.38
2018-06-27T11:22:35.472Z,478.13
2018-06-27T11:23:35.495Z,472.50
2018-06-27T11:24:35.518Z,472.50
2018-06-27T11:25:35.543Z,450.00
2018-06-27T11:26:35.592Z,399.38
2018-06-27T11:27:35.591Z,371.25
2018-06-27T11:28:35.613Z,399.38
2018-06-27T11:29:35.635Z,405.00
2018-06-27T11:30:35.679Z,405.00
2018-06-27T11:31:35.683Z,405.00
2018-06-27T11:32:35.708Z,405.00
2018-06-27T11:33:35.737Z,410.63
2018-06-27T11:34:35.793Z,416.25
2018-06-27T11:35:35.784Z,416.25
2018-06-27T11:36:35.821Z,421.88
2018-06-27T11:37:35.828Z,405.00
2018-06-27T11:38:35.893Z,399.38
2018-06-27T11:39:35.874Z,410.63
2018-06-27T11:40:35.920Z,405.00
2018-06-27T11:41:35.933Z,416.25
2018-06-27T11:42:35.943Z,438.75
2018-06-27T11:43:35.977Z,466.88
2018-06-27T11:44:36.016Z,511.88
2018-06-27T11:45:36.018Z,551.25
2018-06-27T11:46:36.045Z,573.75
2018-06-27T11:47:36.065Z,562.50
2018-06-27T11:48:36.087Z,573.75
2018-06-27T11:49:36.121Z,646.88
2018-06-27T11:50:36.146Z,630.00
2018-06-27T11:51:36.176Z,630.00
2018-06-27T11:52:36.188Z,556.88
2018-06-27T11:53:36.228Z,601.88
2018-06-27T11:54:36.236Z,511.88
2018-06-27T11:55:36.256Z,466.88
2018-06-27T11:56:36.282Z,410.63
2018-06-27T11:57:36.306Z,365.63
2018-06-27T11:58:36.335Z,348.75
2018-06-27T11:59:36.360Z,393.75
2018-06-27T12:00:36.398Z,382.50
2018-06-27T12:01:36.406Z,382.50
2018-06-27T12:02:36.431Z,405.00
2018-06-27T12:03:36.456Z,421.88
2018-06-27T12:04:36.507Z,410.63
2018-06-27T12:05:36.500Z,421.88
2018-06-27T12:06:36.539Z,444.38
2018-06-27T12:07:36.570Z,461.25
2018-06-27T12:08:36.570Z,466.88
2018-06-27T12:09:36.602Z,450.00
2018-06-27T12:10:36.622Z,405.00
2018-06-27T12:11:36.643Z,393.75
2018-06-27T12:12:36.666Z,343.13
2018-06-27T12:13:36.688Z,365.63
2018-06-27T12:14:36.714Z,371.25
2018-06-27T12:15:36.736Z,371.25
2018-06-27T12:16:36.760Z,371.25
2018-06-27T12:17:36.788Z,365.63
2018-06-27T12:18:36.809Z,371.25
2018-06-27T12:19:36.843Z,376.88
2018-06-27T12:20:36.863Z,382.50
2018-06-27T12:21:36.894Z,388.13
2018-06-27T12:22:36.909Z,399.38
2018-06-27T12:23:36.930Z,365.63
2018-06-27T12:24:36.961Z,399.38
2018-06-27T12:25:36.985Z,393.75
2018-06-27T12:26:37.002Z,337.50
2018-06-27T12:27:37.025Z,410.63
2018-06-27T12:28:37.055Z,382.50
2018-06-27T12:29:37.086Z,348.75
2018-06-27T12:30:37.102Z,343.13
2018-06-27T12:31:37.131Z,376.88
2018-06-27T12:32:37.152Z,315.00
2018-06-27T12:33:37.179Z,360.00
2018-06-27T12:34:37.193Z,360.00
2018-06-27T12:35:37.227Z,337.50
2018-06-27T12:36:37.255Z,303.75
2018-06-27T12:37:37.272Z,360.00
2018-06-27T12:38:37.302Z,360.00
2018-06-27T12:39:37.317Z,376.88